Time;durP1;ratioP1;P1;durP2;ratioP2;P2;SDS_P1;SDS_P2;PMS_P1;PMS_P2;Temp;Humidity;BMP_temperature;BMP_pressure;BME280_temperature;BME280_humidity;BME280_pressure;Samples;Min_cycle;Max_cycle;Signal;HPM_P1;HPM_P2
2023/10/10 00:01:03;;;;;;;10.20;4.10;;;;;;;19.02;72.35;100909.81;5064543;28;20186;-59
2023/10/10 00:03:31;;;;;;;13.43;4.10;;;;;;;19.00;72.31;100909.38;5060716;28;20662;-59
2023/10/10 00:06:00;;;;;;;9.10;4.73;;;;;;;19.01;72.09;100899.56;5055266;28;20442;-58
2023/10/10 00:08:34;;;;;;;12.27;4.30;;;;;;;19.00;72.52;100897.91;5053002;28;20444;-58
2023/10/10 00:11:00;;;;;;;13.53;4.70;;;;;;;19.00;72.10;100895.06;5064629;28;20869;-59
2023/10/10 00:13:26;;;;;;;9.43;3.53;;;;;;;19.01;72.29;100888.13;5066067;28;20483;-58
2023/10/10 00:15:55;;;;;;;9.60;4.50;;;;;;;19.00;72.29;100885.63;5049519;28;20426;-58
2023/10/10 00:18:24;;;;;;;12.40;4.80;;;;;;;19.00;72.11;100886.47;5051248;28;20433;-58
2023/10/10 00:21:13;;;;;;;10.80;4.17;;;;;;;18.99;72.30;100887.69;5049492;28;20438;-59
2023/10/10 00:23:42;;;;;;;11.33;3.97;;;;;;;19.00;72.43;100886.47;5058858;28;20467;-59
2023/10/10 00:26:12;;;;;;;11.20;4.73;;;;;;;19.01;72.17;100888.13;5059189;28;20441;-59
2023/10/10 00:28:41;;;;;;;8.87;4.00;;;;;;;19.00;72.30;100885.63;5066084;28;20428;-59
2023/10/10 00:31:10;;;;;;;10.47;4.20;;;;;;;18.99;71.96;100890.53;5048064;28;20461;-58
2023/10/10 00:33:38;;;;;;;13.20;3.97;;;;;;;19.00;72.37;100891.34;5057622;28;20439;-58
2023/10/10 00:36:05;;;;;;;11.80;3.80;;;;;;;19.00;72.24;100888.47;5064502;28;20441;-59
2023/10/10 00:38:31;;;;;;;12.93;4.40;;;;;;;19.00;72.15;100891.34;5067006;28;20429;-59
2023/10/10 00:41:05;;;;;;;12.97;4.47;;;;;;;18.99;72.21;100889.69;5066276;28;20935;-58
2023/10/10 00:43:31;;;;;;;13.37;4.60;;;;;;;19.00;72.13;100889.31;5060446;28;20182;-58
2023/10/10 00:45:57;;;;;;;6.40;3.60;;;;;;;18.99;71.91;100899.13;5056525;28;20520;-59
2023/10/10 00:48:23;;;;;;;13.40;5.13;;;;;;;19.00;71.92;100897.06;5068020;28;20190;-58
2023/10/10 00:51:05;;;;;;;9.67;4.10;;;;;;;18.99;72.02;100890.53;5067251;28;21096;-58
2023/10/10 00:53:33;;;;;;;7.07;3.70;;;;;;;18.99;71.70;100896.25;5059002;28;20440;-58
2023/10/10 00:55:59;;;;;;;10.67;4.27;;;;;;;18.99;71.91;100898.28;5053761;28;20445;-59
2023/10/10 00:58:35;;;;;;;8.40;4.30;;;;;;;18.98;71.95;100888.03;5068681;28;20428;-59
2023/10/10 01:01:05;;;;;;;9.63;4.00;;;;;;;18.98;72.10;100888.88;5054666;28;20206;-58
2023/10/10 01:03:32;;;;;;;7.23;4.20;;;;;;;18.98;71.88;100870.88;5065351;28;20425;-58
2023/10/10 01:05:58;;;;;;;13.67;3.33;;;;;;;18.98;71.94;100874.56;5068130;28;20496;-58
2023/10/10 01:08:26;;;;;;;7.70;3.80;;;;;;;18.98;72.05;100877.44;5067124;28;20446;-59
2023/10/10 01:10:56;;;;;;;10.07;4.20;;;;;;;18.98;72.04;100871.72;5067072;28;20521;-58
2023/10/10 01:13:21;;;;;;;10.50;4.27;;;;;;;18.98;71.85;100868.00;5059054;28;20517;-58
2023/10/10 01:15:47;;;;;;;8.60;3.70;;;;;;;18.97;71.89;100870.03;5054781;28;20445;-58
2023/10/10 01:18:15;;;;;;;6.27;3.10;;;;;;;18.97;71.92;100864.31;5067431;28;20175;-58
2023/10/10 01:20:51;;;;;;;7.07;3.67;;;;;;;18.98;71.77;100862.28;5066288;28;20639;-59
2023/10/10 01:23:26;;;;;;;8.50;4.23;;;;;;;18.98;71.83;100863.13;5066195;28;20443;-59
2023/10/10 01:25:52;;;;;;;7.80;3.97;;;;;;;18.97;71.89;100864.31;5063281;28;20491;-59
2023/10/10 01:33:22;;;;;;;8.60;3.67;;;;;;;18.98;71.84;100856.56;5055689;28;20483;-58
2023/10/10 01:35:49;;;;;;;10.67;3.87;;;;;;;18.97;71.95;100852.03;5066850;28;20479;-59
2023/10/10 01:38:55;;;;;;;12.30;4.13;;;;;;;18.97;71.75;100849.19;5067672;28;20449;-58
2023/10/10 01:41:31;;;;;;;9.37;3.33;;;;;;;18.97;71.72;100844.28;5020193;28;20779;-58
2023/10/10 01:44:08;;;;;;;8.33;3.37;;;;;;;18.97;71.94;100852.84;5061568;28;20444;-58
2023/10/10 01:46:35;;;;;;;7.87;3.40;;;;;;;18.97;71.90;100844.28;5048689;28;20438;-59
2023/10/10 01:49:02;;;;;;;5.93;3.30;;;;;;;18.96;71.79;100851.19;5061680;28;20448;-58
2023/10/10 01:51:33;;;;;;;8.10;3.70;;;;;;;18.95;71.77;100849.56;5066980;28;20449;-59
2023/10/10 01:54:08;;;;;;;9.83;3.33;;;;;;;18.97;71.84;100854.91;5063365;28;20866;-59
2023/10/10 01:56:34;;;;;;;14.63;3.80;;;;;;;18.96;71.82;100856.13;5063183;28;20464;-58
2023/10/10 01:59:02;;;;;;;6.40;3.33;;;;;;;18.96;71.76;100848.34;5061584;28;20591;-59
2023/10/10 02:01:29;;;;;;;6.30;3.20;;;;;;;18.97;72.20;100852.03;5066143;28;20437;-59
2023/10/10 02:03:54;;;;;;;8.33;4.03;;;;;;;18.97;71.63;100850.00;5060698;28;20528;-59
2023/10/10 02:06:27;;;;;;;8.40;3.73;;;;;;;18.97;71.74;100846.31;5064102;28;20469;-59
2023/10/10 02:09:00;;;;;;;8.80;4.20;;;;;;;18.96;71.88;100839.75;5066014;28;20187;-58
2023/10/10 02:11:26;;;;;;;5.00;2.57;;;;;;;18.96;71.51;100838.94;5060986;28;20465;-59
2023/10/10 02:13:53;;;;;;;7.97;3.90;;;;;;;18.95;71.82;100840.97;5052669;28;20738;-59
2023/10/10 02:16:22;;;;;;;9.93;4.23;;;;;;;18.95;71.56;100826.66;5052170;28;20782;-59
2023/10/10 02:18:51;;;;;;;7.17;3.37;;;;;;;18.95;71.84;100823.81;5050254;28;20568;-58
2023/10/10 02:21:42;;;;;;;6.47;3.33;;;;;;;18.95;71.77;100815.22;5046726;28;20434;-59
2023/10/10 02:24:48;;;;;;;8.00;3.17;;;;;;;18.94;71.50;100819.28;5062735;28;20431;-59
2023/10/10 02:27:04;;;;;;;6.37;3.37;;;;;;;18.95;71.83;100820.09;5062029;28;20870;-58
2023/10/10 02:29:35;;;;;;;6.40;3.60;;;;;;;18.95;71.62;100823.81;5065440;28;20753;-59
2023/10/10 02:34:35;;;;;;;8.50;3.83;;;;;;;18.94;72.19;100830.72;5049437;28;20422;-58
2023/10/10 02:40:42;;;;;;;4.97;3.10;;;;;;;18.95;71.68;100828.69;5035204;28;20507;-58
2023/10/10 02:42:50;;;;;;;8.20;3.50;;;;;;;18.94;71.80;100822.16;5057739;28;20449;-58
2023/10/10 02:45:16;;;;;;;5.07;2.97;;;;;;;18.95;71.64;100828.69;5046949;28;20421;-59
2023/10/10 02:47:46;;;;;;;7.47;3.17;;;;;;;18.94;71.89;100816.41;5051598;28;20498;-58
2023/10/10 02:50:12;;;;;;;6.23;3.17;;;;;;;18.95;71.61;100817.22;5066579;28;20480;-58
2023/10/10 02:52:45;;;;;;;9.53;3.67;;;;;;;18.94;71.58;100812.72;5064232;28;20782;-58
2023/10/10 02:55:14;;;;;;;7.40;3.00;;;;;;;18.94;71.85;100807.00;5050774;28;20434;-59
2023/10/10 02:57:41;;;;;;;7.20;3.60;;;;;;;18.93;71.80;100811.91;5049559;28;20465;-59
2023/10/10 03:00:28;;;;;;;8.57;3.43;;;;;;;18.94;71.68;100815.56;5069002;28;20786;-58
2023/10/10 03:02:59;;;;;;;5.40;3.10;;;;;;;18.95;71.81;100814.38;5068641;28;20437;-58
2023/10/10 03:05:43;;;;;;;7.50;4.23;;;;;;;18.94;71.88;100807.00;5061284;28;20441;-59
2023/10/10 03:08:30;;;;;;;8.20;3.07;;;;;;;18.94;71.78;100813.56;5068329;28;20429;-59
2023/10/10 03:11:00;;;;;;;6.10;2.80;;;;;;;18.94;71.84;100813.56;5065073;28;20972;-59
2023/10/10 03:13:30;;;;;;;5.80;2.97;;;;;;;18.93;71.62;100817.63;5052611;28;20477;-58
2023/10/10 03:15:56;;;;;;;5.27;2.80;;;;;;;18.92;71.73;100815.94;5037749;28;20495;-59
2023/10/10 03:18:29;;;;;;;7.83;3.60;;;;;;;18.94;71.81;100812.72;5067459;28;20467;-59
2023/10/10 03:23:52;;;;;;;8.73;3.00;;;;;;;18.92;71.72;100797.97;5064412;28;20437;-59
2023/10/10 03:26:32;;;;;;;5.23;3.03;;;;;;;18.93;71.60;100799.63;5053868;28;20426;-59
2023/10/10 03:29:04;;;;;;;5.60;2.83;;;;;;;18.92;71.66;100815.13;5051548;28;20526;-59
2023/10/10 03:31:38;;;;;;;6.40;3.23;;;;;;;18.92;71.84;100815.94;5050232;28;20469;-58
2023/10/10 03:34:13;;;;;;;7.77;3.83;;;;;;;18.92;71.74;100810.22;5065267;28;20464;-59
2023/10/10 03:36:43;;;;;;;7.77;3.47;;;;;;;18.92;71.68;100815.13;5057558;28;20452;-59
2023/10/10 03:39:43;;;;;;;7.00;3.37;;;;;;;18.92;72.05;100815.94;5058823;28;20528;-59
2023/10/10 05:23:47;;;;;;;4.47;2.33;;;;;;;18.90;71.36;100834.69;5066274;28;20503;-58
2023/10/10 05:26:14;;;;;;;4.30;2.53;;;;;;;18.88;71.57;100834.22;5059014;28;20420;-58
2023/10/10 05:28:40;;;;;;;4.80;2.50;;;;;;;18.88;71.61;100832.22;5057158;28;20424;-59
2023/10/10 05:31:09;;;;;;;6.43;2.97;;;;;;;18.88;71.30;100835.06;5059118;28;20521;-59
2023/10/10 05:33:36;;;;;;;6.80;2.90;;;;;;;18.87;71.18;100830.53;5053294;28;20912;-59
2023/10/10 05:36:07;;;;;;;6.53;2.93;;;;;;;18.88;71.25;100831.38;5056627;28;20433;-59
2023/10/10 05:38:35;;;;;;;5.20;2.67;;;;;;;18.88;71.36;100837.94;5057115;28;21051;-59
2023/10/10 05:41:02;;;;;;;4.90;2.80;;;;;;;18.88;71.45;100843.66;5061927;28;20429;-58
2023/10/10 05:43:33;;;;;;;5.17;2.63;;;;;;;18.86;71.45;100834.59;5060472;28;20437;-59
2023/10/10 05:45:59;;;;;;;6.33;3.30;;;;;;;18.87;71.46;100836.25;5053801;28;20854;-59
2023/10/10 05:48:26;;;;;;;6.10;3.07;;;;;;;18.87;71.39;100835.44;5055697;28;20457;-59
2023/10/10 05:50:53;;;;;;;3.43;2.40;;;;;;;18.87;71.61;100836.25;5059397;28;20214;-58
2023/10/10 05:53:20;;;;;;;5.77;2.90;;;;;;;18.88;70.97;100834.22;5054677;28;20428;-58
2023/10/10 05:55:51;;;;;;;4.10;2.63;;;;;;;18.87;71.28;100841.97;5057165;28;20519;-59
2023/10/10 05:58:17;;;;;;;6.03;3.23;;;;;;;18.87;71.08;100839.13;5058310;28;20509;-58
2023/10/10 06:00:44;;;;;;;6.07;2.60;;;;;;;18.88;71.40;100845.69;5052214;28;21004;-58
2023/10/10 06:03:12;;;;;;;4.90;2.53;;;;;;;18.87;71.24;100852.59;5056253;28;20502;-58
2023/10/10 06:05:45;;;;;;;7.30;2.50;;;;;;;18.87;71.22;100847.69;5054561;28;20441;-58
2023/10/10 06:08:10;;;;;;;4.77;2.70;;;;;;;18.87;71.27;100859.13;5055547;28;20485;-59
2023/10/10 06:10:36;;;;;;;5.00;2.83;;;;;;;18.87;71.18;100856.28;5054014;28;20454;-59
2023/10/10 06:13:06;;;;;;;4.70;2.30;;;;;;;18.87;71.01;100866.91;5058409;28;20179;-59
2023/10/10 06:15:35;;;;;;;4.13;2.53;;;;;;;18.87;71.15;100867.72;5057597;28;20179;-59
2023/10/10 06:18:13;;;;;;;3.27;2.30;;;;;;;18.85;71.22;100867.28;5061664;28;20500;-58
2023/10/10 06:20:42;;;;;;;4.83;2.77;;;;;;;18.87;71.31;100864.06;5053932;28;20605;-59
2023/10/10 06:23:12;;;;;;;4.67;2.43;;;;;;;18.85;71.15;100858.69;5056965;28;20445;-59
2023/10/10 06:25:38;;;;;;;4.70;2.60;;;;;;;18.87;71.27;100858.34;5047150;28;20468;-59
2023/10/10 06:28:06;;;;;;;4.60;2.63;;;;;;;18.87;71.15;100859.13;5047627;28;20806;-59
2023/10/10 06:30:36;;;;;;;8.13;2.83;;;;;;;18.92;70.98;100855.19;5047618;28;20298;-59
2023/10/10 06:33:15;;;;;;;6.87;3.27;;;;;;;19.11;71.43;100858.94;5058530;28;20518;-65
2023/10/10 06:35:51;;;;;;;12.10;4.27;;;;;;;19.25;72.61;100853.59;5062451;28;20479;-58
2023/10/10 06:38:17;;;;;;;19.23;6.70;;;;;;;19.35;73.60;100855.03;5067862;28;20445;-58
2023/10/10 06:40:52;;;;;;;11.90;6.23;;;;;;;19.37;72.47;100859.19;5070554;28;20408;-58
2023/10/10 06:43:19;;;;;;;13.13;5.17;;;;;;;19.30;71.49;100861.91;5055067;28;20179;-58
2023/10/10 06:45:52;;;;;;;16.63;5.40;;;;;;;19.38;70.81;100869.47;5054425;28;21081;-58
2023/10/10 06:48:21;;;;;;;16.37;5.63;;;;;;;19.53;71.10;100873.47;5055152;28;20561;-58
2023/10/10 06:50:49;;;;;;;12.93;4.60;;;;;;;19.47;71.35;100872.13;5059062;28;20838;-58
2023/10/10 06:53:28;;;;;;;12.80;4.60;;;;;;;19.40;70.94;100871.94;5058404;28;20480;-59
2023/10/10 06:55:54;;;;;;;16.80;4.47;;;;;;;19.37;70.48;100884.16;5070037;28;20869;-59
2023/10/10 06:58:20;;;;;;;9.53;5.33;;;;;;;19.35;70.71;100873.06;5056018;28;20445;-59
2023/10/10 07:00:45;;;;;;;12.70;4.70;;;;;;;19.34;70.28;100868.56;5066710;28;20179;-58
2023/10/10 07:03:11;;;;;;;13.00;4.60;;;;;;;19.37;70.33;100872.69;5065552;28;20242;-59
2023/10/10 07:05:39;;;;;;;13.07;4.87;;;;;;;19.35;69.97;100875.09;5053722;28;20657;-59
2023/10/10 07:08:24;;;;;;;11.90;3.90;;;;;;;19.34;70.33;100865.69;5067029;28;20451;-59
2023/10/10 07:10:50;;;;;;;13.43;4.57;;;;;;;19.35;70.29;100864.47;5062422;28;20472;-59
2023/10/10 07:13:18;;;;;;;21.80;4.77;;;;;;;19.36;69.44;100868.19;5066736;28;20451;-59
2023/10/10 07:15:51;;;;;;;18.03;5.87;;;;;;;19.45;71.71;100868.78;5069949;28;20179;-59
2023/10/10 07:18:22;;;;;;;13.20;4.20;;;;;;;19.40;71.05;100867.06;5065533;28;21024;-59
2023/10/10 07:23:37;;;;;;;15.33;5.03;;;;;;;19.39;70.73;100859.66;5056067;28;20463;-58
2023/10/10 07:26:07;;;;;;;11.93;3.93;;;;;;;19.41;69.68;100874.44;5052727;28;20799;-59
2023/10/10 07:28:48;;;;;;;11.30;3.90;;;;;;;19.45;69.75;100863.06;5055100;28;20446;-59
2023/10/10 07:31:17;;;;;;;11.27;4.10;;;;;;;19.44;70.32;100873.69;5068455;28;20547;-59
2023/10/10 07:33:55;;;;;;;12.83;4.20;;;;;;;19.48;70.19;100876.63;5068889;28;21118;-59
2023/10/10 07:36:24;;;;;;;13.37;4.33;;;;;;;19.43;70.77;100877.78;5069999;28;20428;-59
2023/10/10 07:38:54;;;;;;;12.63;4.67;;;;;;;19.43;70.49;100879.78;5068942;28;20437;-58
2023/10/10 07:41:27;;;;;;;6.93;3.30;;;;;;;19.43;70.20;100894.94;5070148;28;20906;-59
2023/10/10 07:43:58;;;;;;;12.33;3.97;;;;;;;19.39;70.11;100884.59;5065835;28;20954;-59
2023/10/10 07:46:24;;;;;;;12.27;4.37;;;;;;;19.37;69.90;100895.59;5064008;28;20441;-59
2023/10/10 07:48:54;;;;;;;7.10;3.93;;;;;;;19.37;69.22;100902.16;5049120;28;20480;-59
2023/10/10 07:51:28;;;;;;;10.20;4.27;;;;;;;19.40;69.49;100889.97;5052351;28;20500;-59
2023/10/10 07:54:01;;;;;;;11.07;4.07;;;;;;;19.40;69.58;100889.97;5048939;28;20838;-58
2023/10/10 07:56:30;;;;;;;9.77;3.40;;;;;;;19.40;69.49;100886.25;5053396;28;20430;-59
2023/10/10 07:58:57;;;;;;;10.80;4.37;;;;;;;19.35;69.45;100889.41;5057504;28;20540;-58
2023/10/10 08:01:23;;;;;;;11.70;4.20;;;;;;;19.32;69.81;100890.97;5064295;28;20520;-57
2023/10/10 08:03:49;;;;;;;14.80;4.00;;;;;;;19.30;69.56;100890.53;5056861;28;21191;-59
2023/10/10 08:06:21;;;;;;;18.93;4.70;;;;;;;19.28;69.30;100887.22;5058066;28;20472;-59
2023/10/10 08:08:49;;;;;;;15.97;5.20;;;;;;;19.21;69.36;100881.28;5055631;28;20188;-57
2023/10/10 08:11:25;;;;;;;16.63;5.10;;;;;;;19.26;69.40;100877.34;5058213;28;20468;-59
2023/10/10 08:13:50;;;;;;;17.63;4.60;;;;;;;19.28;69.82;100874.94;5063753;28;20449;-59
2023/10/10 08:16:29;;;;;;;22.10;5.50;;;;;;;19.28;69.60;100884.34;5054530;28;20438;-60
2023/10/10 08:18:55;;;;;;;19.90;4.97;;;;;;;19.27;69.88;100887.59;5062350;28;20231;-60
2023/10/10 08:21:24;;;;;;;15.97;5.53;;;;;;;19.28;69.81;100887.22;5060109;28;20550;-60
2023/10/10 08:23:56;;;;;;;14.20;5.60;;;;;;;19.30;69.76;100881.94;5055431;28;21299;-60
2023/10/10 08:26:26;;;;;;;24.97;6.30;;;;;;;19.30;70.78;100876.22;5050371;28;20437;-59
2023/10/10 08:28:52;;;;;;;22.97;5.50;;;;;;;19.35;71.52;100886.53;5049679;28;20767;-60
2023/10/10 08:31:17;;;;;;;19.73;4.60;;;;;;;19.36;71.08;100889.03;5049674;28;20461;-60
2023/10/10 08:33:46;;;;;;;15.43;5.13;;;;;;;19.39;70.46;100893.19;5058946;28;20183;-60
2023/10/10 08:36:23;;;;;;;14.00;5.30;;;;;;;19.37;70.97;100884.97;5059515;28;20182;-59
2023/10/10 08:38:51;;;;;;;12.00;4.17;;;;;;;19.37;70.61;100890.69;5060273;28;20464;-60
2023/10/10 08:41:28;;;;;;;15.23;4.60;;;;;;;19.32;70.57;100879.53;5048764;28;20434;-60
2023/10/10 08:43:57;;;;;;;14.93;4.30;;;;;;;19.35;71.00;100892.25;5060335;28;20445;-59
2023/10/10 08:46:26;;;;;;;17.93;5.03;;;;;;;19.32;70.96;100879.53;5067722;28;20494;-59
2023/10/10 08:48:52;;;;;;;15.37;4.90;;;;;;;19.32;70.94;100893.03;5066934;28;20966;-59
2023/10/10 08:51:17;;;;;;;17.30;4.53;;;;;;;19.30;71.21;100893.38;5066715;28;20526;-60
2023/10/10 08:53:43;;;;;;;17.07;4.77;;;;;;;19.30;71.18;100889.69;5061815;28;20626;-59
2023/10/10 08:56:08;;;;;;;16.13;4.80;;;;;;;19.30;71.09;100886.81;5066169;28;20201;-59
2023/10/10 08:58:35;;;;;;;13.80;4.23;;;;;;;19.29;71.20;100888.88;5047101;28;20187;-60
2023/10/10 09:01:02;;;;;;;12.40;4.17;;;;;;;19.29;71.23;100886.00;5049963;28;20186;-59
2023/10/10 09:03:28;;;;;;;14.07;4.60;;;;;;;19.29;71.13;100899.47;5058712;28;20533;-60
2023/10/10 09:05:55;;;;;;;14.73;4.40;;;;;;;19.29;71.23;100893.75;5058645;28;20442;-59
2023/10/10 09:08:26;;;;;;;15.83;4.50;;;;;;;19.27;71.22;100896.19;5060992;28;20468;-60
2023/10/10 09:10:55;;;;;;;10.87;4.50;;;;;;;19.28;71.25;100898.66;5061595;28;20465;-59
2023/10/10 09:13:21;;;;;;;12.23;4.20;;;;;;;19.27;71.36;100891.25;5065806;28;20958;-59
2023/10/10 09:15:56;;;;;;;12.60;4.70;;;;;;;19.27;71.41;100890.44;5067558;28;20429;-59
2023/10/10 09:18:23;;;;;;;12.70;4.43;;;;;;;19.27;71.48;100897.00;5069023;28;20150;-59
2023/10/10 09:20:49;;;;;;;11.97;4.10;;;;;;;19.27;71.30;100897.00;5067375;28;20424;-60
2023/10/10 09:23:25;;;;;;;12.10;3.93;;;;;;;19.28;71.22;100898.66;5058103;28;20430;-59
2023/10/10 09:26:04;;;;;;;11.77;3.83;;;;;;;19.27;71.22;100897.00;5061389;28;20440;-59
2023/10/10 09:28:42;;;;;;;13.37;4.90;;;;;;;19.25;71.45;100887.94;5067832;28;20912;-59
2023/10/10 09:31:19;;;;;;;12.00;4.17;;;;;;;19.25;71.38;100893.69;5060260;28;20816;-60
2023/10/10 09:33:46;;;;;;;12.43;4.00;;;;;;;19.26;71.55;100895.34;5046997;28;20462;-59
2023/10/10 09:36:26;;;;;;;8.70;3.67;;;;;;;19.26;71.53;100901.06;5047042;28;20434;-60
2023/10/10 09:39:25;;;;;;;17.67;4.60;;;;;;;19.25;71.18;100896.53;5053369;28;20426;-60
2023/10/10 09:49:46;;;;;;;10.50;3.80;;;;;;;19.24;71.26;100894.03;5053421;28;20187;-59
2023/10/10 09:58:15;;;;;;;9.50;4.23;;;;;;;19.24;71.45;100891.19;5051354;28;20464;-59
2023/10/10 10:06:00;;;;;;;7.10;3.63;;;;;;;19.24;71.34;100897.75;5052702;28;20183;-59
2023/10/10 10:08:42;;;;;;;10.30;3.90;;;;;;;19.25;71.37;100905.13;5057425;28;20923;-59
2023/10/10 10:11:15;;;;;;;16.13;4.90;;;;;;;19.24;71.57;100908.34;5051705;28;21098;-60
2023/10/10 10:13:48;;;;;;;8.37;3.90;;;;;;;19.25;71.66;100905.13;5056543;28;20496;-59
2023/10/10 10:16:44;;;;;;;7.10;3.63;;;;;;;19.24;71.74;100903.47;5057763;28;20528;-59
2023/10/10 10:19:20;;;;;;;8.30;3.80;;;;;;;19.23;71.72;100909.56;5070126;28;20673;-59
2023/10/10 10:22:08;;;;;;;12.53;4.10;;;;;;;19.23;72.09;100901.81;5063849;28;20428;-59
2023/10/10 10:24:52;;;;;;;10.70;3.20;;;;;;;19.24;71.48;100902.63;5057434;28;20461;-59
2023/10/10 10:27:35;;;;;;;7.10;3.70;;;;;;;19.24;71.64;100900.63;5066784;28;20436;-59
2023/10/10 10:30:35;;;;;;;9.47;4.20;;;;;;;19.22;71.54;100894.41;5060644;28;20552;-59
2023/10/10 10:32:54;;;;;;;9.73;3.83;;;;;;;19.23;71.81;100887.50;5059539;28;20916;-59
2023/10/10 10:35:21;;;;;;;9.00;3.30;;;;;;;19.23;71.67;100889.53;5067985;28;20936;-59
2023/10/10 10:37:54;;;;;;;9.37;4.23;;;;;;;19.22;71.66;100885.81;5050035;28;20461;-59
2023/10/10 10:40:41;;;;;;;11.50;3.70;;;;;;;19.23;71.79;100892.38;5048072;28;20416;-59
2023/10/10 10:43:14;;;;;;;10.07;3.97;;;;;;;19.23;71.87;100876.06;5054434;28;20501;-60
2023/10/10 10:45:45;;;;;;;8.37;4.03;;;;;;;19.23;71.73;100884.66;5069009;28;20460;-60
2023/10/10 10:48:33;;;;;;;8.50;4.20;;;;;;;19.24;71.69;100882.59;5066710;28;20463;-60
2023/10/10 10:51:26;;;;;;;10.87;3.57;;;;;;;19.23;71.77;100878.91;5052313;28;20902;-59
2023/10/10 10:54:01;;;;;;;6.00;3.33;;;;;;;19.25;71.65;100879.38;5054056;28;20541;-60
2023/10/10 10:59:19;;;;;;;10.60;3.93;;;;;;;19.24;71.77;100877.72;5060013;28;20472;-60
2023/10/10 11:01:54;;;;;;;10.37;4.00;;;;;;;19.25;71.65;100873.63;5049914;28;20530;-59
2023/10/10 11:07:02;;;;;;;14.03;3.90;;;;;;;19.25;71.59;100865.06;5066569;28;20957;-59
2023/10/10 11:09:32;;;;;;;7.80;3.57;;;;;;;19.26;71.84;100860.97;5069022;28;20429;-60
2023/10/10 11:12:06;;;;;;;12.00;4.67;;;;;;;19.27;71.55;100856.09;5070622;28;20425;-59
2023/10/10 11:14:32;;;;;;;8.67;3.20;;;;;;;19.27;72.02;100856.91;5067554;28;20468;-60
2023/10/10 11:16:58;;;;;;;14.70;3.47;;;;;;;19.26;71.70;100849.53;5069518;28;20515;-59
2023/10/10 11:22:02;;;;;;;6.63;3.60;;;;;;;19.27;71.77;100845.47;5048875;28;20201;-59
2023/10/10 11:24:31;;;;;;;10.10;3.87;;;;;;;19.28;71.69;100837.72;5053455;28;20472;-59
2023/10/10 11:29:34;;;;;;;12.63;3.83;;;;;;;19.28;71.88;100829.97;5049181;28;20434;-59
2023/10/10 11:32:08;;;;;;;11.37;3.17;;;;;;;19.29;71.72;100827.91;5052974;28;20440;-59
2023/10/10 11:34:44;;;;;;;5.00;3.00;;;;;;;19.29;71.80;100825.91;5050116;28;20444;-59
2023/10/10 11:37:23;;;;;;;6.43;3.50;;;;;;;19.30;71.93;100816.09;5058452;28;20484;-60
2023/10/10 11:39:57;;;;;;;11.73;3.83;;;;;;;19.31;71.65;100817.75;5067498;28;20441;-60
2023/10/10 11:42:27;;;;;;;6.83;3.20;;;;;;;19.31;71.90;100811.22;5068968;28;20510;-60
2023/10/10 11:45:05;;;;;;;9.80;3.80;;;;;;;19.31;71.86;100799.75;5057320;28;20422;-59
2023/10/10 11:47:31;;;;;;;7.80;3.27;;;;;;;19.32;71.59;100807.13;5061735;28;20430;-60
2023/10/10 11:50:05;;;;;;;7.50;3.43;;;;;;;19.31;71.54;100806.28;5047607;28;20466;-59
2023/10/10 11:52:32;;;;;;;8.67;3.80;;;;;;;19.33;71.81;100805.94;5048216;28;20421;-60
2023/10/10 11:55:00;;;;;;;7.07;3.40;;;;;;;19.32;71.90;100801.41;5051618;28;20445;-59
2023/10/10 11:57:28;;;;;;;5.97;2.97;;;;;;;19.33;71.96;100797.34;5068995;28;20416;-60
2023/10/10 12:00:06;;;;;;;7.73;3.37;;;;;;;19.34;71.57;100793.25;5064142;28;20426;-60
2023/10/10 12:02:39;;;;;;;7.80;3.60;;;;;;;19.33;71.63;100798.19;5048861;28;20417;-59
2023/10/10 12:07:53;;;;;;;7.90;3.20;;;;;;;19.36;71.66;100783.09;5049180;28;20425;-60
2023/10/10 12:10:21;;;;;;;6.20;3.20;;;;;;;19.35;71.74;100786.34;5057623;28;20457;-59
2023/10/10 12:12:49;;;;;;;6.23;2.90;;;;;;;19.36;71.87;100779.44;5064356;28;20425;-59
2023/10/10 12:15:19;;;;;;;8.70;3.87;;;;;;;19.36;71.61;100776.56;5050172;28;20947;-60
2023/10/10 12:17:45;;;;;;;12.13;3.63;;;;;;;19.35;71.73;100777.75;5064098;28;20417;-59
2023/10/10 12:20:10;;;;;;;6.40;2.97;;;;;;;19.36;71.70;100773.69;5057188;28;20471;-59
2023/10/10 12:22:37;;;;;;;8.60;3.57;;;;;;;19.36;71.61;100776.56;5055679;28;20186;-59
2023/10/10 12:25:04;;;;;;;7.13;3.40;;;;;;;19.36;71.95;100773.69;5068052;28;20215;-59
2023/10/10 12:27:30;;;;;;;7.03;3.80;;;;;;;19.36;71.78;100770.84;5052668;28;20437;-59
2023/10/10 12:29:56;;;;;;;6.70;3.00;;;;;;;19.34;71.83;100768.34;5048715;28;20450;-59
2023/10/10 12:32:22;;;;;;;8.83;3.73;;;;;;;19.36;71.79;100768.78;5047313;28;20572;-59
2023/10/10 12:34:48;;;;;;;7.50;3.40;;;;;;;19.35;72.05;100764.25;5057088;28;20521;-60
2023/10/10 12:37:17;;;;;;;7.00;2.77;;;;;;;19.36;71.72;100768.78;5067689;28;20688;-60
2023/10/10 12:39:43;;;;;;;9.37;3.10;;;;;;;19.35;72.06;100758.53;5068022;28;20155;-60
2023/10/10 12:42:08;;;;;;;7.80;3.20;;;;;;;19.37;71.86;100758.16;5066294;28;20766;-59
2023/10/10 12:44:34;;;;;;;8.83;3.70;;;;;;;19.36;71.69;100751.59;5065340;28;20426;-60
2023/10/10 12:47:06;;;;;;;7.43;3.37;;;;;;;19.37;71.67;100753.25;5068729;28;20603;-60
2023/10/10 12:49:44;;;;;;;7.43;3.40;;;;;;;19.38;71.74;100745.50;5066609;28;20641;-59
2023/10/10 12:52:13;;;;;;;7.53;3.33;;;;;;;19.38;71.67;100752.06;5067420;28;20417;-60
2023/10/10 12:54:38;;;;;;;5.27;2.63;;;;;;;19.38;71.63;100740.63;5046072;28;20425;-59
2023/10/10 12:57:13;;;;;;;6.97;2.90;;;;;;;19.38;71.72;100748.38;5047787;28;20418;-59
2023/10/10 12:59:38;;;;;;;5.87;3.10;;;;;;;19.38;71.35;100746.34;5063651;28;20193;-60
2023/10/10 13:02:04;;;;;;;5.60;3.10;;;;;;;19.40;71.56;100740.22;5067179;28;20414;-59
2023/10/10 13:04:32;;;;;;;4.50;2.40;;;;;;;19.40;71.61;100751.69;5064782;28;20662;-60
2023/10/10 13:07:03;;;;;;;6.60;3.30;;;;;;;19.40;71.88;100735.34;5066244;28;20182;-59
2023/10/10 13:09:30;;;;;;;8.60;2.97;;;;;;;19.40;71.63;100738.19;5062809;28;20432;-59
2023/10/10 13:11:56;;;;;;;7.10;3.17;;;;;;;19.40;71.79;100734.50;5066430;28;21023;-60
2023/10/10 13:14:25;;;;;;;5.47;3.13;;;;;;;19.39;71.62;100733.69;5065299;28;20460;-59
2023/10/10 13:19:20;;;;;;;7.50;3.33;;;;;;;19.41;71.59;100736.19;5065528;28;20488;-59
2023/10/10 13:21:52;;;;;;;4.70;2.80;;;;;;;19.40;71.62;100732.47;5067518;28;20485;-60
2023/10/10 13:24:18;;;;;;;7.47;3.30;;;;;;;19.40;71.55;100732.47;5067418;28;20853;-59
2023/10/10 13:26:45;;;;;;;9.10;3.30;;;;;;;19.39;71.85;100730.81;5066133;28;20430;-60
2023/10/10 13:29:11;;;;;;;6.27;3.43;;;;;;;19.39;71.67;100727.97;5066170;28;20193;-60
2023/10/10 13:31:37;;;;;;;5.90;3.20;;;;;;;19.41;71.56;100736.19;5066886;28;20452;-60
2023/10/10 13:34:04;;;;;;;8.87;3.53;;;;;;;19.40;71.71;100723.88;5066024;28;20251;-60
2023/10/10 13:36:30;;;;;;;5.37;2.77;;;;;;;19.40;71.84;100723.88;5050394;28;20527;-60
2023/10/10 13:39:05;;;;;;;7.40;3.33;;;;;;;19.40;71.43;100729.63;5066135;28;20429;-59
2023/10/10 13:41:31;;;;;;;5.87;3.47;;;;;;;19.41;71.55;100728.41;5068308;28;20423;-60
2023/10/10 13:44:00;;;;;;;7.13;3.50;;;;;;;19.42;71.80;100732.91;5067523;28;20470;-59
2023/10/10 13:46:27;;;;;;;6.87;2.80;;;;;;;19.43;71.68;100728.88;5067578;28;20498;-60
2023/10/10 13:48:52;;;;;;;5.30;3.07;;;;;;;19.43;71.50;100725.16;5049691;28;20414;-60
2023/10/10 13:51:18;;;;;;;7.20;2.90;;;;;;;19.44;71.00;100729.69;5066904;28;20452;-60
2023/10/10 13:53:44;;;;;;;6.17;3.23;;;;;;;19.42;71.83;100724.31;5067469;28;20186;-58
2023/10/10 13:56:16;;;;;;;5.90;2.50;;;;;;;19.43;71.49;100723.16;5053428;28;20186;-59
2023/10/10 13:58:47;;;;;;;7.57;3.20;;;;;;;19.42;71.68;100727.19;5047580;28;20456;-59
2023/10/10 14:03:45;;;;;;;5.70;2.90;;;;;;;19.41;71.40;100714.09;5053052;28;20500;-60
2023/10/10 14:06:12;;;;;;;5.83;3.17;;;;;;;19.41;71.48;100716.94;5067901;28;20266;-59
2023/10/10 14:08:38;;;;;;;6.03;3.57;;;;;;;19.40;71.34;100712.44;5065841;28;20480;-60
2023/10/10 14:11:04;;;;;;;6.43;2.93;;;;;;;19.39;71.65;100710.78;5063505;28;20461;-60
2023/10/10 14:13:29;;;;;;;5.97;2.70;;;;;;;19.39;71.75;100710.78;5053127;28;20606;-59